Map

Track Data

SID SEASON NUMBER BASIN SUBBASIN NAME ISO_TIME NATURE LAT LON WMO_WIND WMO_PRES WMO_AGENCY TRACK_TYPE DIST2LAND LANDFALL IFLAG USA_AGENCY USA_ATCF_ID USA_LAT USA_LON USA_RECORD USA_STATUS USA_WIND USA_PRES USA_SSHS USA_R34_NE USA_R34_SE USA_R34_SW USA_R34_NW USA_R50_NE USA_R50_SE USA_R50_SW USA_R50_NW USA_R64_NE USA_R64_SE USA_R64_SW USA_R64_NW USA_POCI USA_ROCI USA_RMW USA_EYE TOKYO_LAT TOKYO_LON TOKYO_GRADE TOKYO_WIND TOKYO_PRES TOKYO_R50_DIR TOKYO_R50_LONG TOKYO_R50_SHORT TOKYO_R30_DIR TOKYO_R30_LONG TOKYO_R30_SHORT TOKYO_LAND CMA_LAT CMA_LON CMA_CAT CMA_WIND CMA_PRES HKO_LAT HKO_LON HKO_CAT HKO_WIND HKO_PRES NEWDELHI_LAT NEWDELHI_LON NEWDELHI_GRADE NEWDELHI_WIND NEWDELHI_PRES NEWDELHI_CI NEWDELHI_DP NEWDELHI_POCI REUNION_LAT REUNION_LON REUNION_TYPE REUNION_WIND REUNION_PRES REUNION_TNUM REUNION_CI REUNION_RMW REUNION_R34_NE REUNION_R34_SE REUNION_R34_SW REUNION_R34_NW REUNION_R50_NE REUNION_R50_SE REUNION_R50_SW REUNION_R50_NW REUNION_R64_NE REUNION_R64_SE REUNION_R64_SW REUNION_R64_NW BOM_LAT BOM_LON BOM_TYPE BOM_WIND BOM_PRES BOM_TNUM BOM_CI BOM_RMW BOM_R34_NE BOM_R34_SE BOM_R34_SW BOM_R34_NW BOM_R50_NE BOM_R50_SE BOM_R50_SW BOM_R50_NW BOM_R64_NE BOM_R64_SE BOM_R64_SW BOM_R64_NW BOM_ROCI BOM_POCI BOM_EYE BOM_POS_METHOD BOM_PRES_METHOD NADI_LAT NADI_LON NADI_CAT NADI_WIND NADI_PRES WELLINGTON_LAT WELLINGTON_LON WELLINGTON_WIND WELLINGTON_PRES DS824_LAT DS824_LON DS824_STAGE DS824_WIND DS824_PRES TD9636_LAT TD9636_LON TD9636_STAGE TD9636_WIND TD9636_PRES TD9635_LAT TD9635_LON TD9635_WIND TD9635_PRES TD9635_ROCI NEUMANN_LAT NEUMANN_LON NEUMANN_CLASS NEUMANN_WIND NEUMANN_PRES MLC_LAT MLC_LON MLC_CLASS MLC_WIND MLC_PRES USA_GUST BOM_GUST BOM_GUST_PER REUNION_GUST REUNION_GUST_PER USA_SEAHGT USA_SEARAD_NE USA_SEARAD_SE USA_SEARAD_SW USA_SEARAD_NW STORM_SPEED STORM_DIR
1951025S24152 1951 7 SP EA NOT_NAMED 1951-01-24 23:00:00 NR -24.4000 151.700 1001 bom main 0 0 ______O___O___ -1 -24.7000 151.700 1001 -24.1000 151.700 7 7 142
1951025S24152 1951 7 SP EA NOT_NAMED 1951-01-25 00:00:00 TS -24.4829 151.778 main 0 0 O_____P__OP___ jtwc_sh SH111951 -24.3000 151.800 -1 -24.7602 151.763 -24.3000 151.800 TC -24.2298 151.759 7 7 145
1951025S24152 1951 7 SP EA NOT_NAMED 1951-01-25 03:00:00 TS -24.7780 151.991 main 0 0 P_____P__PP___ SH111951 -24.6551 151.997 -1 -24.9408 151.957 -24.6551 151.997 TC -24.6138 151.944 7 7 146
1951025S24152 1951 7 SP EA NOT_NAMED 1951-01-25 06:00:00 TS -25.0662 152.217 main 0 0 O_____P__OP___ jtwc_sh SH111951 -25.0000 152.200 -1 -25.1211 152.167 -25.0000 152.200 TC -24.9778 152.153 7 7 142
1951025S24152 1951 7 SP EA NOT_NAMED 1951-01-25 09:00:00 TS -25.3392 152.469 main 0 0 P_____P__PP___ SH111951 -25.3223 152.420 -1 -25.3012 152.406 -25.3223 152.420 TC -25.3071 152.402 7 7 138
1951025S24152 1951 7 SP EA NOT_NAMED 1951-01-25 11:00:00 TS -25.5023 152.654 main 0 0 P_____P__PO___ SH111951 -25.5139 152.597 -1 -25.4209 152.587 -25.5139 152.597 TC -25.5000 152.600 7 7 133
1951025S24152 1951 7 SP EA NOT_NAMED 1951-01-25 12:00:00 TS -25.5770 152.756 main 0 0 O_____P__OP___ jtwc_sh SH111951 -25.6000 152.700 -1 -25.4807 152.685 -25.6000 152.700 TC -25.5868 152.710 7 7 126
1951025S24152 1951 7 SP EA NOT_NAMED 1951-01-25 14:00:00 TS -25.7194 152.985 bom main 0 0 P_____O__PP___ SH111951 -25.7710 152.954 -1 -25.6000 152.900 -25.7710 152.954 TC -25.7390 152.946 7 8 123
1951025S24152 1951 7 SP EA NOT_NAMED 1951-01-25 15:00:00 TS -25.7824 153.107 main 0 0 P_____P__PP___ SH111951 -25.8452 153.092 -1 -25.6593 153.017 -25.8452 153.092 TC -25.8036 153.070 7 7 115
1951025S24152 1951 7 SP EA NOT_NAMED 1951-01-25 18:00:00 TS -25.9263 153.473 main 39 39 O_____P__OP___ jtwc_sh SH111951 -26.0000 153.500 -1 -25.8257 153.393 -26.0000 153.500 TC -25.9476 153.447 7 7 109
1951025S24152 1951 7 SP EA NOT_NAMED 1951-01-25 21:00:00 TS -25.9979 153.804 main 69 69 P_____P__PP___ SH111951 -26.0599 153.838 -1 -25.9521 153.770 -26.0599 153.838 TC -26.0092 153.799 7 6 98
1951025S24152 1951 7 SP EA NOT_NAMED 1951-01-25 23:00:00 TS -25.9953 153.994 999 bom main 89 89 P_____O__PO___ SH111951 -26.0333 154.022 -1 -26.0000 154.000 999 -26.0333 154.022 TC -26.0000 154.000 7 5 85
1951025S24152 1951 7 SP EA NOT_NAMED 1951-01-26 00:00:00 TS -25.9780 154.076 main 99 99 O_____P__OP___ jtwc_sh SH111951 -26.0000 154.100 -1 -26.0068 154.098 -26.0000 154.100 TC -25.9829 154.080 7 4 63
1951025S24152 1951 7 SP EA NOT_NAMED 1951-01-26 03:00:00 TS -25.8648 154.278 main 118 115 P_____P__PP___ SH111951 -25.8299 154.280 -1 -25.9688 154.353 -25.8299 154.280 TC -25.8664 154.275 7 4 48
1951025S24152 1951 7 SP EA NOT_NAMED 1951-01-26 06:00:00 TS -25.6872 154.431 main 122 122 O_____P__OP___ jtwc_sh SH111951 -25.6000 154.400 -1 -25.8548 154.554 -25.6000 154.400 TC -25.6785 154.420 7 5 34
1951025S24152 1951 7 SP EA NOT_NAMED 1951-01-26 09:00:00 TS -25.4932 154.559 main 132 128 P_____P__PP___ SH111951 -25.4000 154.507 -1 -25.6799 154.707 -25.4000 154.507 TC -25.4536 154.533 7 5 29
1951025S24152 1951 7 SP EA NOT_NAMED 1951-01-26 11:00:00 TS -25.3540 154.632 main 128 125 P_____P__PO___ SH111951 -25.2667 154.569 -1 -25.5370 154.786 -25.2667 154.569 TC -25.3000 154.600 7 5 25
1951025S24152 1951 7 SP EA NOT_NAMED 1951-01-26 12:00:00 TS -25.2847 154.668 main 134 131 O_____P__OP___ jtwc_sh SH111951 -25.2000 154.600 -1 -25.4592 154.819 -25.2000 154.600 TC -25.2354 154.642 7 5 24
1951025S24152 1951 7 SP EA NOT_NAMED 1951-01-26 15:00:00 TS -25.0693 154.770 main 141 140 P_____P__PP___ SH111951 -25.0000 154.700 -1 -25.2077 154.899 -25.0000 154.700 TC -25.0358 154.760 7 5 21
1951025S24152 1951 7 SP EA NOT_NAMED 1951-01-26 18:00:00 TS -24.8476 154.859 main 152 152 O_____P__OP___ jtwc_sh SH111951 -24.8000 154.800 -1 -24.9404 154.951 -24.8000 154.800 TC -24.8319 154.862 7 5 19
1951025S24152 1951 7 SP EA NOT_NAMED 1951-01-26 21:00:00 TS -24.6230 154.940 main 157 157 P_____P__PP___ SH111951 -24.5925 154.908 -1 -24.6720 154.985 -24.5925 154.908 TC -24.6302 154.950 7 5 18
1951025S24152 1951 7 SP EA NOT_NAMED 1951-01-26 23:00:00 TS -24.4792 154.986 999 bom main 170 170 P_____O__PO___ SH111951 -24.4610 154.972 -1 -24.5000 155.000 999 4 -24.4610 154.972 TC -24.5000 155.000 7 4 19
1951025S24152 1951 7 SP EA NOT_NAMED 1951-01-27 00:00:00 TS -24.4115 155.011 main 174 174 O_____P__OP___ jtwc_sh SH111951 -24.4000 155.000 -1 -24.4180 155.028 -24.4000 155.000 TC -24.4395 155.028 7 4 18
1951025S24152 1951 7 SP EA NOT_NAMED 1951-01-27 03:00:00 TS -24.2212 155.078 main 193 193 P_____P__PP___ SH111951 -24.2500 155.057 -1 -24.1630 155.103 -24.2500 155.057 TC -24.2642 155.104 7 4 16
1951025S24152 1951 7 SP EA NOT_NAMED 1951-01-27 06:00:00 TS -24.0306 155.128 main 202 202 O_____P__OP___ jtwc_sh SH111951 -24.1000 155.100 -1 -23.9045 155.160 -24.1000 155.100 TC -24.0930 155.162 7 4 12
1951025S24152 1951 7 SP EA NOT_NAMED 1951-01-27 09:00:00 TS -23.8321 155.170 main 222 222 P_____P__PP___ SH111951 -23.9225 155.158 -1 -23.6557 155.196 -23.9225 155.158 TC -23.9197 155.195 7 4 10
1951025S24152 1951 7 SP EA NOT_NAMED 1951-01-27 11:00:00 TS -23.6936 155.187 main 228 228 P_____P__PO___ SH111951 -23.7807 155.189 -1 -23.5014 155.207 -23.7807 155.189 TC -23.8000 155.200 7 4 0
1951025S24152 1951 7 SP EA NOT_NAMED 1951-01-27 12:00:00 TS -23.6175 155.192 main 234 234 O_____P__OP___ jtwc_sh SH111951 -23.7000 155.200 -1 -23.4292 155.208 -23.7000 155.200 TC -23.7170 155.204 7 5 0
1951025S24152 1951 7 SP EA NOT_NAMED 1951-01-27 15:00:00 TS -23.3602 155.195 main 248 248 P_____P__PP___ SH111951 -23.3700 155.230 -1 -23.2382 155.194 -23.3700 155.230 TC -23.4542 155.197 7 5 355
1951025S24152 1951 7 SP EA NOT_NAMED 1951-01-27 18:00:00 TS -23.1479 155.157 main 270 263 O_____P__OP___ jtwc_sh SH111951 -23.1000 155.200 -1 -23.0955 155.149 -23.1000 155.200 TC -23.2123 155.157 7 3 338
1951025S24152 1951 7 SP EA NOT_NAMED 1951-01-27 21:00:00 TS -23.0495 155.060 main 271 265 P_____P__PP___ SH111951 -23.0250 155.072 -1 -23.0140 155.072 -23.0250 155.072 TC -23.0445 155.078 7 2 300
1951025S24152 1951 7 SP EA NOT_NAMED 1951-01-27 23:00:00 TS -23.0459 154.971 999 bom main 265 250 P_____O__PO___ SH111951 -23.0614 154.958 -1 -23.0000 155.000 999 -23.0614 154.958 TC -23.0000 155.000 7 3 262
1951025S24152 1951 7 SP EA NOT_NAMED 1951-01-28 00:00:00 TS -23.0673 154.923 main 250 234 O_____P__OP___ jtwc_sh SH111951 -23.1000 154.900 -1 -23.0236 154.959 -23.1000 154.900 TC -23.0131 154.955 7 3 231
1951025S24152 1951 7 SP EA NOT_NAMED 1951-01-28 03:00:00 TS -23.1900 154.778 main 234 204 P_____P__PP___ SH111951 -23.2699 154.765 -1 -23.1482 154.810 -23.2699 154.765 TC -23.1403 154.787 7 4 223
1951025S24152 1951 7 SP EA NOT_NAMED 1951-01-28 06:00:00 TS -23.3801 154.601 main 204 174 O_____P__OP___ jtwc_sh SH111951 -23.5000 154.600 -1 -23.3396 154.625 -23.5000 154.600 TC -23.3609 154.582 7 5 223
1951025S24152 1951 7 SP EA NOT_NAMED 1951-01-28 09:00:00 TS -23.5865 154.378 main 174 153 P_____P__PP___ SH111951 -23.7001 154.358 -1 -23.5794 154.411 -23.7001 154.358 TC -23.6247 154.355 7 6 225
1951025S24152 1951 7 SP EA NOT_NAMED 1951-01-28 11:00:00 TS -23.7325 154.218 main 153 144 P_____P__PO___ SH111951 -23.8334 154.183 -1 -23.7571 154.254 -23.8334 154.183 TC -23.8000 154.200 7 6 225
1951025S24152 1951 7 SP EA NOT_NAMED 1951-01-28 12:00:00 TS -23.8033 154.140 main 138 108 O_____P__OP___ jtwc_sh SH111951 -23.9000 154.100 -1 -23.8492 154.173 -23.9000 154.100 TC -23.8666 154.131 7 6 223
1951025S24152 1951 7 SP EA NOT_NAMED 1951-01-28 15:00:00 TS -24.0216 153.920 main 108 78 P_____P__PP___ SH111951 -24.0999 153.900 -1 -24.1308 153.918 -24.0999 153.900 TC -24.0665 153.918 7 6 223
1951025S24152 1951 7 SP EA NOT_NAMED 1951-01-28 18:00:00 TS -24.2448 153.692 main 78 39 O_____P__OP___ jtwc_sh SH111951 -24.3000 153.700 -1 -24.4057 153.651 -24.3000 153.700 TC -24.2665 153.697 7 6 224
1951025S24152 1951 7 SP EA NOT_NAMED 1951-01-28 21:00:00 TS -24.4681 153.441 main 35 22 P_____P__PP___ SH111951 -24.5000 153.457 -1 -24.6559 153.380 -24.5000 153.457 TC -24.4665 153.464 7 6 226
1951025S24152 1951 7 SP EA NOT_NAMED 1951-01-28 23:00:00 TS -24.6145 153.267 1008 bom main 22 11 P_____O__PO___ SH111951 -24.6333 153.286 -1 -24.8000 153.200 1008 -24.6333 153.286 TC -24.6000 153.300 7 7 226
1951025S24152 1951 7 SP EA NOT_NAMED 1951-01-29 00:00:00 TS -24.6948 153.182 main 11 0 O_____P__OP___ jtwc_sh SH111951 -24.7000 153.200 -1 -24.8547 153.116 -24.7000 153.200 TC -24.6691 153.217 7 6 227
1951025S24152 1951 7 SP EA NOT_NAMED 1951-01-29 03:00:00 TS -24.9076 152.928 main 23 15 P_____P__PP___ SH111951 -24.8999 152.957 -1 -25.0078 152.859 -24.8999 152.957 TC -24.8774 152.960 7 6 229
1951025S24152 1951 7 SP EA NOT_NAMED 1951-01-29 06:00:00 TS -25.1081 152.666 main 15 0 O_____P__OP___ jtwc_sh SH111951 -25.1000 152.700 -1 -25.1522 152.592 -25.1000 152.700 TC -25.0824 152.687 7 6 230
1951025S24152 1951 7 SP EA NOT_NAMED 1951-01-29 07:00:00 TS -25.1719 152.576 bom main 0 0 P_____O__PP___ SH111951 -25.1693 152.606 -1 -25.2000 152.500 -25.1693 152.606 TC -25.1489 152.593 7 6 234
1951025S24152 1951 7 SP EA NOT_NAMED 1951-01-29 09:00:00 TS -25.2974 152.382 main 0 0 P_____P__PP___ SH111951 -25.3075 152.408 -1 -25.2967 152.313 -25.3075 152.408 TC -25.2779 152.400 7 7 235
1951025S24152 1951 7 SP EA NOT_NAMED 1951-01-29 11:00:00 TS -25.4182 152.181 main 0 0 P_____P__PO___ SH111951 -25.4390 152.203 -1 -25.3949 152.120 -25.4390 152.203 TC -25.4000 152.200 7 7 237
1951025S24152 1951 7 SP EA NOT_NAMED 1951-01-29 12:00:00 TS -25.4721 152.077 main 0 0 O_____P__OP___ jtwc_sh SH111951 -25.5000 152.100 -1 -25.4444 152.022 -25.5000 152.100 TC -25.4579 152.098 7 6 241
1951025S24152 1951 7 SP EA NOT_NAMED 1951-01-29 15:00:00 TS -25.6250 151.768 main 0 0 P_____P__PP___ SH111951 -25.6601 151.798 -1 -25.5945 151.724 -25.6601 151.798 TC -25.6202 151.782 7 6 242
1951025S24152 1951 7 SP EA NOT_NAMED 1951-01-29 18:00:00 TS -25.7682 151.453 main 0 0 O_____P__OP___ jtwc_sh SH111951 -25.8000 151.500 -1 -25.7462 151.418 -25.8000 151.500 TC -25.7691 151.456 7 7 245
1951025S24152 1951 7 SP EA NOT_NAMED 1951-01-29 21:00:00 NR -25.9038 151.116 main 0 0 ______P___P___ SH111951 -1 -25.8985 151.108 TC -25.9091 151.124 7 7 245
1951025S24152 1951 7 SP EA NOT_NAMED 1951-01-29 23:00:00 NR -26.0000 150.900 1010 bom main 0 ______O___O___ SH111951 -1 -26.0000 150.900 1010 TC -26.0000 150.900 7 7 244

Digital Typhoon Data and Search

About IBTrACS Database

This database is a web-friendly format of International Best Track Archive for Climate Stewardship (IBTrACS), a global best track data archive curated by NOAA dating back to 1842.

Updated: 2021-11-26